Hlavní strana
METAR-TAF:

METAR-TAF

Letiště :

Sfax, Tunisko

zeměpisná šířka: 34-43N, zeměpisná délka: 010-41E, výška: 21 m

Aktuální stav počasí

Zpráva byla vytvořena před 49 minutami, v 03:00 UTC
Severozápadní vítr 5 kt
Teplota 11°C
Vlhkost vzduchu 82%
Tlak 1023 hPa

METAR: DTTX 070300Z AUTO 32005KT NCD 11/08 Q1023

Čas: 04:49 (03:49 UTC)

Předpověď počasí

Zpráva byla vytvořena před 4 hodinami a 49 minutami, v 23:00 UTC
Předpověď platná od 07 v 00 UTC do 07 v 24 UTC
Severní vítr 3 kt
Viditelnost 10 km a více
Skoro jasno ve výšce 2000 ft
Pravděpodobnost 30% :
Dočasný
od 07 v 03 UTC do 07 v 06 UTC
Viditelnost: 2000 m
kouřmo
Změna
od 07 v 10 UTC do 07 v 12 UTC
Východní vítr 10 kt
Změna
od 07 v 19 UTC do 07 v 21 UTC
Jihovýchodní vítr 3 kt

TAF: DTTX 062300Z 0700/0724 35003KT 9999 FEW020 PROB30 TEMPO 0703/0706 2000 BR BECMG 0710/0712 08010KT BECMG 0719/0721 14003KT

Stav a předpovědi počasí z více než 4 000 letišť (zprávy METAR a TAF).

Červené a žluté tečky na mapě představují dostupné meteorologické stanice.

Když kurzor umístíte na tečku, zobrazí se název stanice.

Pak kliknutím zobrazíte stav a předpověď počasí.

Chcete-li změnit mapu, kliknutím na zelené tlačítko se znaménkem +mapu přiblížíte, kliknutím na zelené tlačítko se znaménkem – mapu oddálíte a kliknutím na zelené šipky přejdete na sousední mapy.


METAR-TAF: